sensor_id;sensor_type;location;lat;lon;timestamp;P1;P2;P0
73517;PMS5003;61766;60.318;25.044;2023-07-13T00:00:36;12;11;
73517;PMS5003;61766;60.318;25.044;2023-07-13T00:03:02;9;9;
73517;PMS5003;61766;60.318;25.044;2023-07-13T00:05:28;9;9;
73517;PMS5003;61766;60.318;25.044;2023-07-13T00:07:54;11;11;
73517;PMS5003;61766;60.318;25.044;2023-07-13T00:10:19;11;11;
73517;PMS5003;61766;60.318;25.044;2023-07-13T00:12:45;14;14;
73517;PMS5003;61766;60.318;25.044;2023-07-13T00:15:12;12;12;
73517;PMS5003;61766;60.318;25.044;2023-07-13T00:17:37;10;10;
73517;PMS5003;61766;60.318;25.044;2023-07-13T00:20:03;14;14;
73517;PMS5003;61766;60.318;25.044;2023-07-13T00:22:28;12;12;
73517;PMS5003;61766;60.318;25.044;2023-07-13T00:24:54;11;11;
73517;PMS5003;61766;60.318;25.044;2023-07-13T00:27:20;11;11;
73517;PMS5003;61766;60.318;25.044;2023-07-13T00:29:46;12;12;
73517;PMS5003;61766;60.318;25.044;2023-07-13T00:32:11;9;9;
73517;PMS5003;61766;60.318;25.044;2023-07-13T00:34:37;12;12;
73517;PMS5003;61766;60.318;25.044;2023-07-13T00:37:03;13;13;
73517;PMS5003;61766;60.318;25.044;2023-07-13T00:39:28;13;12;
73517;PMS5003;61766;60.318;25.044;2023-07-13T00:41:54;16;16;
73517;PMS5003;61766;60.318;25.044;2023-07-13T00:44:20;10;10;
73517;PMS5003;61766;60.318;25.044;2023-07-13T00:46:44;12;12;
73517;PMS5003;61766;60.318;25.044;2023-07-13T00:49:11;12;12;
73517;PMS5003;61766;60.318;25.044;2023-07-13T00:51:38;11;11;
73517;PMS5003;61766;60.318;25.044;2023-07-13T00:54:03;12;12;
73517;PMS5003;61766;60.318;25.044;2023-07-13T00:56:27;9;9;
73517;PMS5003;61766;60.318;25.044;2023-07-13T00:58:53;13;12;
73517;PMS5003;61766;60.318;25.044;2023-07-13T01:01:18;10;10;
73517;PMS5003;61766;60.318;25.044;2023-07-13T01:03:44;12;12;
73517;PMS5003;61766;60.318;25.044;2023-07-13T01:06:09;13;12;
73517;PMS5003;61766;60.318;25.044;2023-07-13T01:08:34;13;12;
73517;PMS5003;61766;60.318;25.044;2023-07-13T01:11:00;11;11;
73517;PMS5003;61766;60.318;25.044;2023-07-13T01:13:25;13;12;
73517;PMS5003;61766;60.318;25.044;2023-07-13T01:15:51;15;15;
73517;PMS5003;61766;60.318;25.044;2023-07-13T01:18:16;13;11;
73517;PMS5003;61766;60.318;25.044;2023-07-13T01:20:40;14;13;
73517;PMS5003;61766;60.318;25.044;2023-07-13T01:23:05;13;12;
73517;PMS5003;61766;60.318;25.044;2023-07-13T01:25:30;12;12;
73517;PMS5003;61766;60.318;25.044;2023-07-13T01:27:55;13;13;
73517;PMS5003;61766;60.318;25.044;2023-07-13T01:30:20;13;13;
73517;PMS5003;61766;60.318;25.044;2023-07-13T01:32:45;12;12;
73517;PMS5003;61766;60.318;25.044;2023-07-13T01:35:11;12;12;
73517;PMS5003;61766;60.318;25.044;2023-07-13T01:37:36;15;15;
73517;PMS5003;61766;60.318;25.044;2023-07-13T01:40:01;13;13;
73517;PMS5003;61766;60.318;25.044;2023-07-13T01:42:27;13;12;
73517;PMS5003;61766;60.318;25.044;2023-07-13T01:44:51;13;13;
73517;PMS5003;61766;60.318;25.044;2023-07-13T01:47:16;12;12;
73517;PMS5003;61766;60.318;25.044;2023-07-13T01:49:41;12;11;
73517;PMS5003;61766;60.318;25.044;2023-07-13T01:52:07;14;13;
73517;PMS5003;61766;60.318;25.044;2023-07-13T01:54:31;12;11;
73517;PMS5003;61766;60.318;25.044;2023-07-13T01:56:56;11;11;
73517;PMS5003;61766;60.318;25.044;2023-07-13T01:59:21;15;13;
73517;PMS5003;61766;60.318;25.044;2023-07-13T02:01:46;12;12;
73517;PMS5003;61766;60.318;25.044;2023-07-13T02:04:11;12;12;
73517;PMS5003;61766;60.318;25.044;2023-07-13T02:06:37;19;19;
73517;PMS5003;61766;60.318;25.044;2023-07-13T02:09:03;11;11;
73517;PMS5003;61766;60.318;25.044;2023-07-13T02:11:28;11;11;
73517;PMS5003;61766;60.318;25.044;2023-07-13T02:13:53;9;9;
73517;PMS5003;61766;60.318;25.044;2023-07-13T02:16:18;12;11;
73517;PMS5003;61766;60.318;25.044;2023-07-13T02:18:43;13;12;
73517;PMS5003;61766;60.318;25.044;2023-07-13T02:21:08;12;12;
73517;PMS5003;61766;60.318;25.044;2023-07-13T02:23:33;13;13;
73517;PMS5003;61766;60.318;25.044;2023-07-13T02:25:59;13;13;
73517;PMS5003;61766;60.318;25.044;2023-07-13T02:28:23;14;14;
73517;PMS5003;61766;60.318;25.044;2023-07-13T02:30:48;14;14;
73517;PMS5003;61766;60.318;25.044;2023-07-13T02:33:13;16;16;
73517;PMS5003;61766;60.318;25.044;2023-07-13T02:35:38;12;12;
73517;PMS5003;61766;60.318;25.044;2023-07-13T02:38:03;12;12;
73517;PMS5003;61766;60.318;25.044;2023-07-13T02:40:28;12;12;
73517;PMS5003;61766;60.318;25.044;2023-07-13T02:42:53;12;12;
73517;PMS5003;61766;60.318;25.044;2023-07-13T02:45:18;16;14;
73517;PMS5003;61766;60.318;25.044;2023-07-13T02:47:43;14;13;
73517;PMS5003;61766;60.318;25.044;2023-07-13T02:50:09;13;12;
73517;PMS5003;61766;60.318;25.044;2023-07-13T02:52:34;14;14;
73517;PMS5003;61766;60.318;25.044;2023-07-13T02:54:59;12;12;
73517;PMS5003;61766;60.318;25.044;2023-07-13T02:57:25;14;13;
73517;PMS5003;61766;60.318;25.044;2023-07-13T02:59:50;15;15;
73517;PMS5003;61766;60.318;25.044;2023-07-13T03:02:15;14;14;
73517;PMS5003;61766;60.318;25.044;2023-07-13T03:04:40;13;13;
73517;PMS5003;61766;60.318;25.044;2023-07-13T03:07:06;13;13;
73517;PMS5003;61766;60.318;25.044;2023-07-13T03:09:34;13;13;
73517;PMS5003;61766;60.318;25.044;2023-07-13T03:11:58;11;10;
73517;PMS5003;61766;60.318;25.044;2023-07-13T03:14:24;13;12;
73517;PMS5003;61766;60.318;25.044;2023-07-13T03:16:49;15;13;
73517;PMS5003;61766;60.318;25.044;2023-07-13T03:19:15;12;12;
73517;PMS5003;61766;60.318;25.044;2023-07-13T03:21:40;11;11;
73517;PMS5003;61766;60.318;25.044;2023-07-13T03:24:06;10;10;
73517;PMS5003;61766;60.318;25.044;2023-07-13T03:26:32;13;13;
73517;PMS5003;61766;60.318;25.044;2023-07-13T03:28:57;12;12;
73517;PMS5003;61766;60.318;25.044;2023-07-13T03:31:24;12;10;
73517;PMS5003;61766;60.318;25.044;2023-07-13T03:33:49;10;10;
73517;PMS5003;61766;60.318;25.044;2023-07-13T03:36:15;11;11;
73517;PMS5003;61766;60.318;25.044;2023-07-13T03:38:41;14;13;
73517;PMS5003;61766;60.318;25.044;2023-07-13T03:41:06;14;14;
73517;PMS5003;61766;60.318;25.044;2023-07-13T03:43:32;12;12;
73517;PMS5003;61766;60.318;25.044;2023-07-13T03:45:58;11;11;
73517;PMS5003;61766;60.318;25.044;2023-07-13T03:48:24;16;16;
73517;PMS5003;61766;60.318;25.044;2023-07-13T03:50:49;11;11;
73517;PMS5003;61766;60.318;25.044;2023-07-13T03:53:15;13;13;
73517;PMS5003;61766;60.318;25.044;2023-07-13T03:55:41;14;14;
73517;PMS5003;61766;60.318;25.044;2023-07-13T04:00:32;11;11;
73517;PMS5003;61766;60.318;25.044;2023-07-13T04:02:58;12;12;
73517;PMS5003;61766;60.318;25.044;2023-07-13T04:05:24;13;13;
73517;PMS5003;61766;60.318;25.044;2023-07-13T04:07:50;13;13;
73517;PMS5003;61766;60.318;25.044;2023-07-13T04:10:16;12;12;
73517;PMS5003;61766;60.318;25.044;2023-07-13T04:12:42;10;10;
73517;PMS5003;61766;60.318;25.044;2023-07-13T04:15:08;12;12;
73517;PMS5003;61766;60.318;25.044;2023-07-13T04:17:33;12;12;
73517;PMS5003;61766;60.318;25.044;2023-07-13T04:19:59;12;12;
73517;PMS5003;61766;60.318;25.044;2023-07-13T04:22:25;12;11;
73517;PMS5003;61766;60.318;25.044;2023-07-13T04:24:50;13;13;
73517;PMS5003;61766;60.318;25.044;2023-07-13T04:27:16;12;10;
73517;PMS5003;61766;60.318;25.044;2023-07-13T04:29:42;12;12;
73517;PMS5003;61766;60.318;25.044;2023-07-13T04:32:08;14;13;
73517;PMS5003;61766;60.318;25.044;2023-07-13T04:34:33;10;10;
73517;PMS5003;61766;60.318;25.044;2023-07-13T04:36:59;13;12;
73517;PMS5003;61766;60.318;25.044;2023-07-13T04:39:24;12;12;
73517;PMS5003;61766;60.318;25.044;2023-07-13T04:41:50;13;13;
73517;PMS5003;61766;60.318;25.044;2023-07-13T04:44:16;10;10;
73517;PMS5003;61766;60.318;25.044;2023-07-13T04:46:41;8;8;
73517;PMS5003;61766;60.318;25.044;2023-07-13T04:49:07;9;9;
73517;PMS5003;61766;60.318;25.044;2023-07-13T04:51:33;8;8;
73517;PMS5003;61766;60.318;25.044;2023-07-13T04:53:59;10;10;
73517;PMS5003;61766;60.318;25.044;2023-07-13T04:56:24;11;11;
73517;PMS5003;61766;60.318;25.044;2023-07-13T04:58:50;11;10;
73517;PMS5003;61766;60.318;25.044;2023-07-13T05:01:16;9;9;
73517;PMS5003;61766;60.318;25.044;2023-07-13T05:03:42;10;9;
73517;PMS5003;61766;60.318;25.044;2023-07-13T05:06:07;11;11;
73517;PMS5003;61766;60.318;25.044;2023-07-13T05:08:33;10;10;
73517;PMS5003;61766;60.318;25.044;2023-07-13T05:10:59;9;9;
73517;PMS5003;61766;60.318;25.044;2023-07-13T05:13:25;10;10;
73517;PMS5003;61766;60.318;25.044;2023-07-13T05:15:55;11;11;
73517;PMS5003;61766;60.318;25.044;2023-07-13T05:18:16;9;8;
73517;PMS5003;61766;60.318;25.044;2023-07-13T05:20:42;11;11;
73517;PMS5003;61766;60.318;25.044;2023-07-13T05:23:07;11;11;
73517;PMS5003;61766;60.318;25.044;2023-07-13T05:25:33;11;10;
73517;PMS5003;61766;60.318;25.044;2023-07-13T05:27:58;9;8;
73517;PMS5003;61766;60.318;25.044;2023-07-13T05:30:24;12;12;
73517;PMS5003;61766;60.318;25.044;2023-07-13T05:32:50;10;10;
73517;PMS5003;61766;60.318;25.044;2023-07-13T05:35:16;9;9;
73517;PMS5003;61766;60.318;25.044;2023-07-13T05:37:41;9;8;
73517;PMS5003;61766;60.318;25.044;2023-07-13T05:40:07;9;9;
73517;PMS5003;61766;60.318;25.044;2023-07-13T05:42:33;9;9;
73517;PMS5003;61766;60.318;25.044;2023-07-13T05:44:58;9;9;
73517;PMS5003;61766;60.318;25.044;2023-07-13T05:47:24;10;10;
73517;PMS5003;61766;60.318;25.044;2023-07-13T05:49:50;7;7;
73517;PMS5003;61766;60.318;25.044;2023-07-13T05:52:15;8;8;
73517;PMS5003;61766;60.318;25.044;2023-07-13T05:54:41;9;9;
73517;PMS5003;61766;60.318;25.044;2023-07-13T05:57:06;7;7;
73517;PMS5003;61766;60.318;25.044;2023-07-13T05:59:32;11;10;
73517;PMS5003;61766;60.318;25.044;2023-07-13T06:01:58;9;9;
73517;PMS5003;61766;60.318;25.044;2023-07-13T06:04:23;7;7;
73517;PMS5003;61766;60.318;25.044;2023-07-13T06:06:49;8;8;
73517;PMS5003;61766;60.318;25.044;2023-07-13T06:09:15;9;9;
73517;PMS5003;61766;60.318;25.044;2023-07-13T06:11:40;9;9;
73517;PMS5003;61766;60.318;25.044;2023-07-13T06:14:06;9;9;
73517;PMS5003;61766;60.318;25.044;2023-07-13T06:16:32;9;9;
73517;PMS5003;61766;60.318;25.044;2023-07-13T06:18:57;7;7;
73517;PMS5003;61766;60.318;25.044;2023-07-13T06:21:23;7;7;
73517;PMS5003;61766;60.318;25.044;2023-07-13T06:23:49;8;8;
73517;PMS5003;61766;60.318;25.044;2023-07-13T06:26:14;8;8;
73517;PMS5003;61766;60.318;25.044;2023-07-13T06:28:40;6;6;
73517;PMS5003;61766;60.318;25.044;2023-07-13T06:31:06;6;6;
73517;PMS5003;61766;60.318;25.044;2023-07-13T06:33:31;6;6;
73517;PMS5003;61766;60.318;25.044;2023-07-13T06:35:57;7;7;
73517;PMS5003;61766;60.318;25.044;2023-07-13T06:38:23;7;7;
73517;PMS5003;61766;60.318;25.044;2023-07-13T06:40:48;6;6;
73517;PMS5003;61766;60.318;25.044;2023-07-13T06:43:14;5;5;
73517;PMS5003;61766;60.318;25.044;2023-07-13T06:45:40;6;6;
73517;PMS5003;61766;60.318;25.044;2023-07-13T06:48:05;8;7;
73517;PMS5003;61766;60.318;25.044;2023-07-13T06:50:31;6;6;
73517;PMS5003;61766;60.318;25.044;2023-07-13T06:52:56;8;8;
73517;PMS5003;61766;60.318;25.044;2023-07-13T06:55:22;7;7;
73517;PMS5003;61766;60.318;25.044;2023-07-13T06:57:48;6;6;
73517;PMS5003;61766;60.318;25.044;2023-07-13T07:00:14;9;8;
73517;PMS5003;61766;60.318;25.044;2023-07-13T07:02:39;6;6;
73517;PMS5003;61766;60.318;25.044;2023-07-13T07:05:05;7;6;
73517;PMS5003;61766;60.318;25.044;2023-07-13T07:07:30;6;6;
73517;PMS5003;61766;60.318;25.044;2023-07-13T07:09:56;7;7;
73517;PMS5003;61766;60.318;25.044;2023-07-13T07:12:21;4;4;
73517;PMS5003;61766;60.318;25.044;2023-07-13T07:14:47;6;6;
73517;PMS5003;61766;60.318;25.044;2023-07-13T07:17:13;6;6;
73517;PMS5003;61766;60.318;25.044;2023-07-13T07:19:38;6;6;
73517;PMS5003;61766;60.318;25.044;2023-07-13T07:22:04;4;4;
73517;PMS5003;61766;60.318;25.044;2023-07-13T07:24:30;4;4;
73517;PMS5003;61766;60.318;25.044;2023-07-13T07:26:55;6;6;
73517;PMS5003;61766;60.318;25.044;2023-07-13T07:29:21;6;5;
73517;PMS5003;61766;60.318;25.044;2023-07-13T07:31:46;6;6;
73517;PMS5003;61766;60.318;25.044;2023-07-13T07:34:12;5;5;
73517;PMS5003;61766;60.318;25.044;2023-07-13T07:36:37;9;9;
73517;PMS5003;61766;60.318;25.044;2023-07-13T07:39:02;4;4;
73517;PMS5003;61766;60.318;25.044;2023-07-13T07:41:28;6;5;
73517;PMS5003;61766;60.318;25.044;2023-07-13T07:43:53;5;5;
73517;PMS5003;61766;60.318;25.044;2023-07-13T07:46:19;5;5;
73517;PMS5003;61766;60.318;25.044;2023-07-13T07:48:44;7;7;
73517;PMS5003;61766;60.318;25.044;2023-07-13T07:51:10;7;7;
73517;PMS5003;61766;60.318;25.044;2023-07-13T07:53:36;5;5;
73517;PMS5003;61766;60.318;25.044;2023-07-13T07:56:01;6;6;
73517;PMS5003;61766;60.318;25.044;2023-07-13T07:58:27;5;5;
73517;PMS5003;61766;60.318;25.044;2023-07-13T08:00:53;7;7;
73517;PMS5003;61766;60.318;25.044;2023-07-13T08:03:18;6;6;
73517;PMS5003;61766;60.318;25.044;2023-07-13T08:05:44;4;4;
73517;PMS5003;61766;60.318;25.044;2023-07-13T08:08:09;7;7;
73517;PMS5003;61766;60.318;25.044;2023-07-13T08:10:35;6;6;
73517;PMS5003;61766;60.318;25.044;2023-07-13T08:13:01;5;5;
73517;PMS5003;61766;60.318;25.044;2023-07-13T08:15:26;4;4;
73517;PMS5003;61766;60.318;25.044;2023-07-13T08:17:52;7;6;
73517;PMS5003;61766;60.318;25.044;2023-07-13T08:20:17;6;6;
73517;PMS5003;61766;60.318;25.044;2023-07-13T08:22:43;4;4;
73517;PMS5003;61766;60.318;25.044;2023-07-13T08:25:09;7;7;
73517;PMS5003;61766;60.318;25.044;2023-07-13T08:27:34;5;5;
73517;PMS5003;61766;60.318;25.044;2023-07-13T08:30:00;5;5;
73517;PMS5003;61766;60.318;25.044;2023-07-13T08:32:25;6;6;
73517;PMS5003;61766;60.318;25.044;2023-07-13T08:34:51;6;6;
73517;PMS5003;61766;60.318;25.044;2023-07-13T08:37:17;7;6;
73517;PMS5003;61766;60.318;25.044;2023-07-13T08:39:42;6;5;
73517;PMS5003;61766;60.318;25.044;2023-07-13T08:42:12;5;5;
73517;PMS5003;61766;60.318;25.044;2023-07-13T08:44:36;5;5;
73517;PMS5003;61766;60.318;25.044;2023-07-13T08:46:59;5;5;
73517;PMS5003;61766;60.318;25.044;2023-07-13T08:49:25;5;5;
73517;PMS5003;61766;60.318;25.044;2023-07-13T08:51:51;6;5;
73517;PMS5003;61766;60.318;25.044;2023-07-13T08:54:19;6;6;
73517;PMS5003;61766;60.318;25.044;2023-07-13T08:56:43;5;5;
73517;PMS5003;61766;60.318;25.044;2023-07-13T08:59:11;7;7;
73517;PMS5003;61766;60.318;25.044;2023-07-13T09:01:34;6;6;
73517;PMS5003;61766;60.318;25.044;2023-07-13T09:04:00;6;6;
73517;PMS5003;61766;60.318;25.044;2023-07-13T09:06:27;6;5;
73517;PMS5003;61766;60.318;25.044;2023-07-13T09:08:52;4;4;
73517;PMS5003;61766;60.318;25.044;2023-07-13T09:11:20;7;6;
73517;PMS5003;61766;60.318;25.044;2023-07-13T09:13:43;7;7;
73517;PMS5003;61766;60.318;25.044;2023-07-13T09:16:06;7;7;
73517;PMS5003;61766;60.318;25.044;2023-07-13T09:18:33;5;5;
73517;PMS5003;61766;60.318;25.044;2023-07-13T09:20:58;5;4;
73517;PMS5003;61766;60.318;25.044;2023-07-13T09:23:24;5;5;
73517;PMS5003;61766;60.318;25.044;2023-07-13T09:25:49;6;6;
73517;PMS5003;61766;60.318;25.044;2023-07-13T09:28:15;4;4;
73517;PMS5003;61766;60.318;25.044;2023-07-13T09:30:45;6;6;
73517;PMS5003;61766;60.318;25.044;2023-07-13T09:33:06;6;6;
73517;PMS5003;61766;60.318;25.044;2023-07-13T09:35:31;4;4;
73517;PMS5003;61766;60.318;25.044;2023-07-13T09:37:58;4;4;
73517;PMS5003;61766;60.318;25.044;2023-07-13T09:40:24;6;6;
73517;PMS5003;61766;60.318;25.044;2023-07-13T09:42:48;5;5;
73517;PMS5003;61766;60.318;25.044;2023-07-13T09:45:14;5;5;
73517;PMS5003;61766;60.318;25.044;2023-07-13T09:47:39;6;6;
73517;PMS5003;61766;60.318;25.044;2023-07-13T09:50:06;5;5;
73517;PMS5003;61766;60.318;25.044;2023-07-13T09:54:56;4;4;
73517;PMS5003;61766;60.318;25.044;2023-07-13T09:57:23;5;5;
73517;PMS5003;61766;60.318;25.044;2023-07-13T09:59:49;5;5;
73517;PMS5003;61766;60.318;25.044;2023-07-13T10:04:39;3;3;
73517;PMS5003;61766;60.318;25.044;2023-07-13T10:07:05;3;3;
73517;PMS5003;61766;60.318;25.044;2023-07-13T10:09:30;5;5;
73517;PMS5003;61766;60.318;25.044;2023-07-13T10:11:55;4;4;
73517;PMS5003;61766;60.318;25.044;2023-07-13T10:14:21;5;5;
73517;PMS5003;61766;60.318;25.044;2023-07-13T10:16:56;4;4;
73517;PMS5003;61766;60.318;25.044;2023-07-13T10:19:14;5;5;
73517;PMS5003;61766;60.318;25.044;2023-07-13T10:21:39;6;6;
73517;PMS5003;61766;60.318;25.044;2023-07-13T10:24:05;6;6;
73517;PMS5003;61766;60.318;25.044;2023-07-13T10:26:30;8;8;
73517;PMS5003;61766;60.318;25.044;2023-07-13T10:28:56;8;8;
73517;PMS5003;61766;60.318;25.044;2023-07-13T10:31:20;7;7;
73517;PMS5003;61766;60.318;25.044;2023-07-13T10:33:46;6;6;
73517;PMS5003;61766;60.318;25.044;2023-07-13T10:36:13;6;6;
73517;PMS5003;61766;60.318;25.044;2023-07-13T10:38:37;6;6;
73517;PMS5003;61766;60.318;25.044;2023-07-13T10:41:04;6;6;
73517;PMS5003;61766;60.318;25.044;2023-07-13T10:43:31;5;5;
73517;PMS5003;61766;60.318;25.044;2023-07-13T10:45:54;7;7;
73517;PMS5003;61766;60.318;25.044;2023-07-13T10:48:20;6;6;
73517;PMS5003;61766;60.318;25.044;2023-07-13T10:50:46;6;6;
73517;PMS5003;61766;60.318;25.044;2023-07-13T10:53:18;5;5;
73517;PMS5003;61766;60.318;25.044;2023-07-13T10:55:37;7;7;
73517;PMS5003;61766;60.318;25.044;2023-07-13T10:58:03;6;6;
73517;PMS5003;61766;60.318;25.044;2023-07-13T11:00:30;6;6;
73517;PMS5003;61766;60.318;25.044;2023-07-13T11:02:56;7;6;
73517;PMS5003;61766;60.318;25.044;2023-07-13T11:05:25;6;6;
73517;PMS5003;61766;60.318;25.044;2023-07-13T11:10:30;5;5;
73517;PMS5003;61766;60.318;25.044;2023-07-13T11:15:04;6;6;
73517;PMS5003;61766;60.318;25.044;2023-07-13T11:17:33;6;6;
73517;PMS5003;61766;60.318;25.044;2023-07-13T11:19:53;5;5;
73517;PMS5003;61766;60.318;25.044;2023-07-13T11:22:23;6;6;
73517;PMS5003;61766;60.318;25.044;2023-07-13T11:24:56;4;4;
73517;PMS5003;61766;60.318;25.044;2023-07-13T11:29:36;7;6;
73517;PMS5003;61766;60.318;25.044;2023-07-13T11:32:10;5;5;
73517;PMS5003;61766;60.318;25.044;2023-07-13T11:34:27;6;5;
73517;PMS5003;61766;60.318;25.044;2023-07-13T11:36:52;6;6;
73517;PMS5003;61766;60.318;25.044;2023-07-13T11:39:18;6;6;
73517;PMS5003;61766;60.318;25.044;2023-07-13T11:41:44;5;5;
73517;PMS5003;61766;60.318;25.044;2023-07-13T11:44:12;6;5;
73517;PMS5003;61766;60.318;25.044;2023-07-13T11:46:34;6;6;
73517;PMS5003;61766;60.318;25.044;2023-07-13T11:49:00;6;6;
73517;PMS5003;61766;60.318;25.044;2023-07-13T11:51:26;5;5;
73517;PMS5003;61766;60.318;25.044;2023-07-13T11:53:53;5;5;
73517;PMS5003;61766;60.318;25.044;2023-07-13T11:56:17;5;5;
73517;PMS5003;61766;60.318;25.044;2023-07-13T11:58:43;3;3;
73517;PMS5003;61766;60.318;25.044;2023-07-13T12:01:13;5;5;
73517;PMS5003;61766;60.318;25.044;2023-07-13T12:03:34;5;5;
73517;PMS5003;61766;60.318;25.044;2023-07-13T12:06:00;5;5;
73517;PMS5003;61766;60.318;25.044;2023-07-13T12:08:25;5;5;
73517;PMS5003;61766;60.318;25.044;2023-07-13T12:13:16;4;4;
73517;PMS5003;61766;60.318;25.044;2023-07-13T12:15:43;4;4;
73517;PMS5003;61766;60.318;25.044;2023-07-13T12:18:11;6;6;
73517;PMS5003;61766;60.318;25.044;2023-07-13T12:20:34;6;6;
73517;PMS5003;61766;60.318;25.044;2023-07-13T12:22:59;5;5;
73517;PMS5003;61766;60.318;25.044;2023-07-13T12:25:24;5;5;
73517;PMS5003;61766;60.318;25.044;2023-07-13T12:27:50;5;5;
73517;PMS5003;61766;60.318;25.044;2023-07-13T12:32:41;3;3;
73517;PMS5003;61766;60.318;25.044;2023-07-13T12:37:34;7;6;
73517;PMS5003;61766;60.318;25.044;2023-07-13T12:39:58;3;3;
73517;PMS5003;61766;60.318;25.044;2023-07-13T12:42:25;4;4;
73517;PMS5003;61766;60.318;25.044;2023-07-13T12:44:49;6;6;
73517;PMS5003;61766;60.318;25.044;2023-07-13T12:47:15;5;5;
73517;PMS5003;61766;60.318;25.044;2023-07-13T12:49:41;5;5;
73517;PMS5003;61766;60.318;25.044;2023-07-13T12:52:12;6;6;
73517;PMS5003;61766;60.318;25.044;2023-07-13T12:54:32;4;3;
73517;PMS5003;61766;60.318;25.044;2023-07-13T12:56:58;6;6;
73517;PMS5003;61766;60.318;25.044;2023-07-13T12:59:23;4;4;
73517;PMS5003;61766;60.318;25.044;2023-07-13T13:01:49;3;3;
73517;PMS5003;61766;60.318;25.044;2023-07-13T13:04:14;4;4;
73517;PMS5003;61766;60.318;25.044;2023-07-13T13:06:40;4;4;
73517;PMS5003;61766;60.318;25.044;2023-07-13T13:09:09;7;5;
73517;PMS5003;61766;60.318;25.044;2023-07-13T13:11:31;5;5;
73517;PMS5003;61766;60.318;25.044;2023-07-13T13:13:57;6;6;
73517;PMS5003;61766;60.318;25.044;2023-07-13T13:16:23;5;5;
73517;PMS5003;61766;60.318;25.044;2023-07-13T13:18:49;4;4;
73517;PMS5003;61766;60.318;25.044;2023-07-13T13:21:14;6;5;
73517;PMS5003;61766;60.318;25.044;2023-07-13T13:23:39;5;5;
73517;PMS5003;61766;60.318;25.044;2023-07-13T13:26:08;4;4;
73517;PMS5003;61766;60.318;25.044;2023-07-13T13:28:31;6;6;
73517;PMS5003;61766;60.318;25.044;2023-07-13T13:30:57;4;4;
73517;PMS5003;61766;60.318;25.044;2023-07-13T13:33:22;5;4;
73517;PMS5003;61766;60.318;25.044;2023-07-13T13:35:48;4;4;
73517;PMS5003;61766;60.318;25.044;2023-07-13T13:38:14;3;3;
73517;PMS5003;61766;60.318;25.044;2023-07-13T13:40:39;5;5;
73517;PMS5003;61766;60.318;25.044;2023-07-13T13:43:09;3;3;
73517;PMS5003;61766;60.318;25.044;2023-07-13T13:45:30;5;4;
73517;PMS5003;61766;60.318;25.044;2023-07-13T13:47:56;4;4;
73517;PMS5003;61766;60.318;25.044;2023-07-13T13:50:22;5;5;
73517;PMS5003;61766;60.318;25.044;2023-07-13T13:52:47;4;4;
73517;PMS5003;61766;60.318;25.044;2023-07-13T13:55:13;4;4;
73517;PMS5003;61766;60.318;25.044;2023-07-13T13:57:39;4;4;
73517;PMS5003;61766;60.318;25.044;2023-07-13T14:00:05;3;3;
73517;PMS5003;61766;60.318;25.044;2023-07-13T14:02:30;6;6;
73517;PMS5003;61766;60.318;25.044;2023-07-13T14:04:57;7;5;
73517;PMS5003;61766;60.318;25.044;2023-07-13T14:07:21;5;5;
73517;PMS5003;61766;60.318;25.044;2023-07-13T14:09:47;5;5;
73517;PMS5003;61766;60.318;25.044;2023-07-13T14:12:13;4;4;
73517;PMS5003;61766;60.318;25.044;2023-07-13T14:14:38;4;4;
73517;PMS5003;61766;60.318;25.044;2023-07-13T14:17:04;6;6;
73517;PMS5003;61766;60.318;25.044;2023-07-13T14:19:30;5;5;
73517;PMS5003;61766;60.318;25.044;2023-07-13T14:21:55;5;5;
73517;PMS5003;61766;60.318;25.044;2023-07-13T14:24:21;5;5;
73517;PMS5003;61766;60.318;25.044;2023-07-13T14:26:47;5;5;
73517;PMS5003;61766;60.318;25.044;2023-07-13T14:29:13;4;4;
73517;PMS5003;61766;60.318;25.044;2023-07-13T14:31:38;4;4;
73517;PMS5003;61766;60.318;25.044;2023-07-13T14:34:04;4;4;
73517;PMS5003;61766;60.318;25.044;2023-07-13T14:36:31;5;5;
73517;PMS5003;61766;60.318;25.044;2023-07-13T14:38:55;5;5;
73517;PMS5003;61766;60.318;25.044;2023-07-13T14:41:21;6;5;
73517;PMS5003;61766;60.318;25.044;2023-07-13T14:43:46;4;4;
73517;PMS5003;61766;60.318;25.044;2023-07-13T14:46:16;3;3;
73517;PMS5003;61766;60.318;25.044;2023-07-13T14:48:38;5;5;
73517;PMS5003;61766;60.318;25.044;2023-07-13T14:51:03;4;4;
73517;PMS5003;61766;60.318;25.044;2023-07-13T14:53:29;4;4;
73517;PMS5003;61766;60.318;25.044;2023-07-13T14:55:55;5;5;
73517;PMS5003;61766;60.318;25.044;2023-07-13T14:58:21;5;5;
73517;PMS5003;61766;60.318;25.044;2023-07-13T15:00:46;5;5;
73517;PMS5003;61766;60.318;25.044;2023-07-13T15:03:15;4;4;
73517;PMS5003;61766;60.318;25.044;2023-07-13T15:05:37;6;5;
73517;PMS5003;61766;60.318;25.044;2023-07-13T15:08:03;4;4;
73517;PMS5003;61766;60.318;25.044;2023-07-13T15:10:29;5;5;
73517;PMS5003;61766;60.318;25.044;2023-07-13T15:12:57;6;6;
73517;PMS5003;61766;60.318;25.044;2023-07-13T15:15:20;4;4;
73517;PMS5003;61766;60.318;25.044;2023-07-13T15:17:46;3;3;
73517;PMS5003;61766;60.318;25.044;2023-07-13T15:20:15;5;5;
73517;PMS5003;61766;60.318;25.044;2023-07-13T15:22:37;5;5;
73517;PMS5003;61766;60.318;25.044;2023-07-13T15:25:03;6;5;
73517;PMS5003;61766;60.318;25.044;2023-07-13T15:27:29;5;5;
73517;PMS5003;61766;60.318;25.044;2023-07-13T15:29:54;7;5;
73517;PMS5003;61766;60.318;25.044;2023-07-13T15:32:20;5;5;
73517;PMS5003;61766;60.318;25.044;2023-07-13T15:34:46;4;4;
73517;PMS5003;61766;60.318;25.044;2023-07-13T15:37:12;5;5;
73517;PMS5003;61766;60.318;25.044;2023-07-13T15:39:37;4;4;
73517;PMS5003;61766;60.318;25.044;2023-07-13T15:42:03;5;5;
73517;PMS5003;61766;60.318;25.044;2023-07-13T15:44:29;4;4;
73517;PMS5003;61766;60.318;25.044;2023-07-13T15:46:54;5;5;
73517;PMS5003;61766;60.318;25.044;2023-07-13T15:49:20;4;4;
73517;PMS5003;61766;60.318;25.044;2023-07-13T15:51:45;6;6;
73517;PMS5003;61766;60.318;25.044;2023-07-13T15:54:12;8;7;
73517;PMS5003;61766;60.318;25.044;2023-07-13T15:56:36;9;8;
73517;PMS5003;61766;60.318;25.044;2023-07-13T15:59:02;11;11;
73517;PMS5003;61766;60.318;25.044;2023-07-13T16:01:27;7;7;
73517;PMS5003;61766;60.318;25.044;2023-07-13T16:03:53;7;7;
73517;PMS5003;61766;60.318;25.044;2023-07-13T16:06:19;8;8;
73517;PMS5003;61766;60.318;25.044;2023-07-13T16:08:44;6;6;
73517;PMS5003;61766;60.318;25.044;2023-07-13T16:11:12;6;6;
73517;PMS5003;61766;60.318;25.044;2023-07-13T16:13:36;7;7;
73517;PMS5003;61766;60.318;25.044;2023-07-13T16:16:01;7;7;
73517;PMS5003;61766;60.318;25.044;2023-07-13T16:18:27;8;7;
73517;PMS5003;61766;60.318;25.044;2023-07-13T16:20:53;6;6;
73517;PMS5003;61766;60.318;25.044;2023-07-13T16:23:19;7;7;
73517;PMS5003;61766;60.318;25.044;2023-07-13T16:25:44;7;7;
73517;PMS5003;61766;60.318;25.044;2023-07-13T16:28:10;6;6;
73517;PMS5003;61766;60.318;25.044;2023-07-13T16:30:36;7;7;
73517;PMS5003;61766;60.318;25.044;2023-07-13T16:33:02;9;8;